Sheridan, WY

7:16 AM MDT on August 22, 2014 (GMT -0600)
North Airport Area | Change Station
CLOSE
Current Station
Personal Weather Station
Location: Sheridan, WY
Elevation: 3917 ft
Nearby Weather Stations

Elev 3917 ft 44.78 °N, 106.97 °W | Updated 1 minute ago

Overcast
Overcast
58.3 °F
Feels Like 58.3 °F
N
0.0
Wind Variable Wind from NNW

Today
High -- | Low -- °F
--% Chance of Precip.
Yesterday
High -- | Low -- °F
Precip. -- in
6:18 AM 8:02 PM
Waning Crescent, 8% visible
Pressure 30.06 in
Visibility 6.0 miles
Clouds Mostly Cloudy 1100 ft
Overcast 1900 ft
Dew Point 54 °F
Humidity 85%
Rainfall 0.00 in
Snow Depth 0 in
UV 0 out of 12
Pollen 6.70 out of 12
Air Quality Not available.
Flu Activity Not available.
METAR KSHR 221253Z AUTO 22003KT 6SM BR BKN011 OVC019 14/13 A3011 RMK AO2 SLP178 T01440128

More Conditions Fewer Conditions

Pressure 30.06 in
Visibility 6.0 miles
Clouds Mostly Cloudy 1100 ft
Overcast 1900 ft
Dew Point 54 °F
Humidity 85%
Rainfall 0.00 in
Snow Depth 0 in
UV 0 out of 12
Pollen 6.70 out of 12
Air Quality Not available.
Flu Activity Not available.
METAR KSHR 221253Z AUTO 22003KT 6SM BR BKN011 OVC019 14/13 A3011 RMK AO2 SLP178 T01440128

More Conditions Fewer Conditions

10-Day Weather Forecast

Almanac

Astronomy

Aug. 22, 2014 Rise Set
Actual Time 6:18 AM MDT 8:02 PM MDT
Civil Twilight 5:47 AM MDT 8:33 PM MDT
Nautical Twilight 5:09 AM MDT 9:10 PM MDT
Astronomical Twilight 4:28 AM MDT 9:51 PM MDT
Moon 3:40 AM MDT 6:14 PM MDT
Length of Visible Light 14h 45m
Length of Day
13h 43m
Tomorrow will be 2m 54s shorter.
Waning Crescent, 8% of the Moon is Illuminated
Today
Waning Crescent
Aug 25
New
Sep 2
First Quarter
Sep 8
Full
Sep 15
Last Quarter

Today's Extremes

State Highs State Lows

Community

WunderPhotos

Upload Photos

1,746,160 photos uploaded!

Nearby

Snow Depth

Station Depth Elevation
Big Goose 0 in 7990 ft
Sucker Creek 1 in 8880 ft
Dome Lake 0 in 8880 ft
Cloud Peak Reservoir 0 in 9860 ft
Burgess Junction 1 in 7880 ft

Earthquake Activity

City Distance Mag. Time & Date
No recent earthquake activity has been reported nearby.
Minimum magnitude displayed is 2.5.

Coastal Water Temperatures

Place Temperature
No Stations Reporting

Nearby Weather Stations